createdAt,value
2022-12-08T00:01:42.835Z,42.83
2022-12-08T00:04:10.318Z,46.03
2022-12-08T00:06:59.343Z,45.67
2022-12-08T00:09:37.975Z,40.57
2022-12-08T00:12:13.078Z,46.37
2022-12-08T00:14:42.474Z,40.37
2022-12-08T00:17:11.922Z,47.40
2022-12-08T00:19:39.475Z,46.43
2022-12-08T00:22:07.796Z,43.83
2022-12-08T00:24:40.530Z,41.17
2022-12-08T00:27:12.441Z,48.93
2022-12-08T00:29:39.630Z,45.90
2022-12-08T00:32:07.175Z,50.43
2022-12-08T00:34:34.337Z,36.03
2022-12-08T00:37:01.307Z,41.43
2022-12-08T00:39:28.209Z,44.50
2022-12-08T00:42:13.351Z,41.03
2022-12-08T00:44:45.818Z,39.60
2022-12-08T00:47:13.772Z,40.23
2022-12-08T00:49:40.867Z,38.20
2022-12-08T00:52:07.801Z,35.23
2022-12-08T00:54:34.811Z,41.43
2022-12-08T00:57:01.821Z,37.13
2022-12-08T00:59:28.675Z,37.07
2022-12-08T01:01:55.561Z,35.33
2022-12-08T01:04:22.723Z,30.67
2022-12-08T01:06:49.942Z,30.90
2022-12-08T01:09:18.331Z,34.17
2022-12-08T01:11:45.956Z,33.17
2022-12-08T01:14:13.061Z,32.60
2022-12-08T01:16:41.686Z,29.87
2022-12-08T01:19:11.869Z,27.77
2022-12-08T01:21:38.849Z,28.77
2022-12-08T01:24:06.265Z,27.67
2022-12-08T01:26:33.198Z,27.60
2022-12-08T01:29:00.046Z,29.30
2022-12-08T01:31:27.350Z,29.00
2022-12-08T01:33:54.366Z,32.53
2022-12-08T01:36:24.138Z,31.77
2022-12-08T01:38:52.149Z,33.67
2022-12-08T01:41:22.471Z,31.80
2022-12-08T01:43:58.439Z,30.10
2022-12-08T01:46:26.578Z,30.20
2022-12-08T01:49:07.892Z,32.67
2022-12-08T01:51:41.925Z,31.63
2022-12-08T01:54:09.408Z,29.43
2022-12-08T01:56:43.396Z,32.43
2022-12-08T01:59:12.380Z,28.53
2022-12-08T02:01:40.007Z,31.77
2022-12-08T02:04:06.925Z,35.40
2022-12-08T02:06:39.758Z,28.37
2022-12-08T02:09:07.502Z,33.33
2022-12-08T02:11:34.449Z,27.40
2022-12-08T02:14:08.348Z,27.90
2022-12-08T02:16:44.173Z,29.63
2022-12-08T02:19:48.147Z,32.90
2022-12-08T02:22:20.338Z,25.53
2022-12-08T02:25:09.770Z,27.80
2022-12-08T02:27:53.378Z,29.47
2022-12-08T02:30:20.311Z,26.67
2022-12-08T02:32:56.245Z,25.60
2022-12-08T02:36:07.543Z,26.07
2022-12-08T02:38:46.373Z,24.83
2022-12-08T02:41:24.652Z,32.37
2022-12-08T02:44:46.998Z,28.37
2022-12-08T02:47:18.001Z,31.37
2022-12-08T02:49:45.281Z,26.60
2022-12-08T02:52:12.120Z,31.07
2022-12-08T02:54:46.963Z,24.93
2022-12-08T02:57:38.949Z,25.00
2022-12-08T03:00:08.889Z,25.33
2022-12-08T03:03:05.115Z,24.17
2022-12-08T03:09:27.616Z,27.43
2022-12-08T03:12:06.761Z,27.73
2022-12-08T03:14:34.942Z,29.73
2022-12-08T03:17:03.340Z,31.47
2022-12-08T03:19:35.685Z,31.37
2022-12-08T03:22:04.984Z,31.33
2022-12-08T03:24:37.909Z,31.80
2022-12-08T03:27:09.848Z,29.70
2022-12-08T03:29:36.806Z,31.30
2022-12-08T03:32:19.398Z,29.77
2022-12-08T03:34:48.122Z,30.50
2022-12-08T03:37:15.417Z,35.23
2022-12-08T03:39:42.566Z,33.47
2022-12-08T03:42:09.485Z,29.20
2022-12-08T03:44:36.339Z,34.63
2022-12-08T03:47:03.244Z,29.80
2022-12-08T03:49:30.117Z,36.57
2022-12-08T03:52:04.116Z,40.33
2022-12-08T03:54:33.493Z,32.67
2022-12-08T03:57:00.419Z,30.20
2022-12-08T03:59:27.261Z,32.50
2022-12-08T04:01:54.141Z,27.70
2022-12-08T04:04:21.076Z,30.50
2022-12-08T04:06:47.945Z,28.27
2022-12-08T04:09:14.846Z,26.03
2022-12-08T04:11:41.723Z,27.80
2022-12-08T04:14:08.687Z,28.73
2022-12-08T04:16:35.692Z,35.20
2022-12-08T04:19:02.679Z,30.17
2022-12-08T04:21:29.623Z,30.00
2022-12-08T04:24:00.990Z,27.10
2022-12-08T04:26:28.506Z,34.23
2022-12-08T04:28:55.413Z,37.43
2022-12-08T04:31:22.339Z,30.13
2022-12-08T04:33:49.241Z,29.23
2022-12-08T04:36:16.164Z,29.53
2022-12-08T04:38:42.994Z,30.77
2022-12-08T04:41:09.854Z,36.67
2022-12-08T04:43:37.134Z,30.27
2022-12-08T04:46:09.060Z,29.33
2022-12-08T04:48:40.372Z,31.80
2022-12-08T04:51:07.951Z,31.23
2022-12-08T04:53:34.784Z,30.20
2022-12-08T04:56:01.618Z,29.83
2022-12-08T04:58:28.509Z,41.50
2022-12-08T05:00:55.410Z,35.97
2022-12-08T05:03:28.357Z,37.37
2022-12-08T05:05:56.012Z,35.43
2022-12-08T05:08:23.093Z,34.17
2022-12-08T05:10:50.069Z,36.83
2022-12-08T05:13:16.985Z,43.83
2022-12-08T05:15:44.151Z,42.87
2022-12-08T05:18:11.327Z,36.10
2022-12-08T05:20:38.185Z,37.93
2022-12-08T05:23:05.160Z,40.13
2022-12-08T05:25:32.087Z,43.37
2022-12-08T05:28:24.808Z,43.33
2022-12-08T05:30:46.374Z,40.07
2022-12-08T05:33:13.241Z,41.70
2022-12-08T05:35:40.292Z,42.30
2022-12-08T05:38:07.536Z,37.23
2022-12-08T05:40:34.511Z,42.17
2022-12-08T05:43:01.344Z,37.80
2022-12-08T05:45:28.324Z,50.47
2022-12-08T05:47:55.320Z,38.50
2022-12-08T05:50:22.199Z,35.90
2022-12-08T05:52:49.062Z,36.67
2022-12-08T05:55:16.074Z,41.73
2022-12-08T05:57:43.188Z,34.37
2022-12-08T06:00:10.683Z,42.00
2022-12-08T06:02:40.870Z,41.30
2022-12-08T06:05:08.377Z,35.87
2022-12-08T06:07:35.521Z,38.13
2022-12-08T06:10:03.032Z,37.77
2022-12-08T06:12:30.322Z,32.60
2022-12-08T06:14:57.246Z,41.40
2022-12-08T06:17:24.129Z,36.93
2022-12-08T06:19:50.997Z,35.07
2022-12-08T06:22:17.868Z,31.93
2022-12-08T06:24:44.733Z,32.00
2022-12-08T06:27:11.660Z,32.40
2022-12-08T06:29:38.508Z,32.20
2022-12-08T06:32:05.676Z,31.10
2022-12-08T06:34:32.581Z,30.00
2022-12-08T06:36:59.373Z,29.30
2022-12-08T06:39:26.332Z,27.40
2022-12-08T06:42:11.409Z,39.77
2022-12-08T06:44:38.901Z,33.73
2022-12-08T06:47:05.838Z,33.77
2022-12-08T06:49:32.666Z,39.00
2022-12-08T06:51:59.563Z,38.30
2022-12-08T06:54:26.826Z,36.03
2022-12-08T06:56:53.624Z,38.27
2022-12-08T06:59:20.497Z,31.70
2022-12-08T07:01:47.441Z,33.07
2022-12-08T07:04:14.432Z,33.33
2022-12-08T07:06:41.355Z,35.83
2022-12-08T07:09:08.200Z,34.57
2022-12-08T07:11:35.076Z,43.63
2022-12-08T07:14:02.002Z,30.50
2022-12-08T07:16:29.232Z,39.13
2022-12-08T07:18:56.157Z,36.73
2022-12-08T07:21:23.459Z,35.73
2022-12-08T07:23:55.961Z,43.93
2022-12-08T07:26:25.357Z,31.57
2022-12-08T07:28:52.437Z,36.10
2022-12-08T07:31:22.357Z,32.83
2022-12-08T07:33:50.409Z,34.97
2022-12-08T07:36:17.605Z,37.30
2022-12-08T07:38:45.059Z,37.80
2022-12-08T07:41:13.794Z,33.07
2022-12-08T07:43:41.941Z,34.60
2022-12-08T07:46:12.609Z,37.00
2022-12-08T07:48:39.610Z,36.80
2022-12-08T07:51:07.111Z,44.80
2022-12-08T07:53:34.328Z,42.87
2022-12-08T07:56:01.303Z,40.07
2022-12-08T07:58:28.264Z,37.70
2022-12-08T08:00:55.265Z,37.77
2022-12-08T08:03:22.452Z,35.13
2022-12-08T08:05:50.108Z,38.03
2022-12-08T08:08:17.749Z,40.27
2022-12-08T08:10:46.299Z,38.80
2022-12-08T08:13:13.806Z,42.97
2022-12-08T08:15:40.993Z,43.87
2022-12-08T08:18:07.953Z,46.00
2022-12-08T08:20:34.840Z,39.50
2022-12-08T08:23:01.768Z,49.23
2022-12-08T08:25:28.880Z,41.03
2022-12-08T08:27:55.882Z,40.70
2022-12-08T08:30:22.896Z,47.87
2022-12-08T08:32:50.574Z,42.67
2022-12-08T08:35:17.540Z,44.17
2022-12-08T08:37:48.933Z,43.83
2022-12-08T08:40:17.813Z,48.73
2022-12-08T08:42:44.668Z,39.33
2022-12-08T08:45:11.557Z,43.97
2022-12-08T08:47:38.525Z,39.50
2022-12-08T08:50:06.409Z,37.73
2022-12-08T08:52:33.494Z,46.97
2022-12-08T08:55:00.435Z,36.23
2022-12-08T08:57:27.511Z,32.30
2022-12-08T08:59:54.579Z,37.83
2022-12-08T09:02:25.205Z,35.17
2022-12-08T09:04:52.867Z,29.50
2022-12-08T09:07:20.040Z,30.00
2022-12-08T09:09:47.067Z,33.73
2022-12-08T09:12:14.033Z,30.93
2022-12-08T09:14:40.919Z,29.03
2022-12-08T09:17:08.513Z,33.10
2022-12-08T09:19:35.420Z,36.50
2022-12-08T09:22:02.257Z,34.73
2022-12-08T09:24:29.161Z,33.43
2022-12-08T09:26:56.070Z,32.53
2022-12-08T09:29:23.057Z,32.30
2022-12-08T09:31:50.226Z,38.50
2022-12-08T09:34:17.357Z,31.50
2022-12-08T09:36:44.223Z,28.03
2022-12-08T09:39:11.091Z,29.10
2022-12-08T09:41:50.067Z,33.37
2022-12-08T09:44:40.339Z,31.53
2022-12-08T09:47:16.284Z,26.80
2022-12-08T09:49:50.628Z,29.57
2022-12-08T09:52:26.645Z,22.27
2022-12-08T09:54:59.019Z,25.07
2022-12-08T09:57:26.212Z,23.87
2022-12-08T09:59:58.428Z,29.03
2022-12-08T10:02:29.231Z,24.23
2022-12-08T10:04:58.196Z,27.07
2022-12-08T10:07:39.547Z,21.53
2022-12-08T10:10:15.356Z,21.73
2022-12-08T10:13:08.372Z,22.23
2022-12-08T10:15:44.278Z,28.00
2022-12-08T10:18:18.894Z,29.17
2022-12-08T10:20:49.633Z,21.13
2022-12-08T10:23:50.306Z,34.53
2022-12-08T10:26:20.112Z,26.60
2022-12-08T10:28:47.170Z,26.87
2022-12-08T10:31:21.693Z,30.43
2022-12-08T10:33:55.239Z,27.10
2022-12-08T10:36:22.185Z,27.90
2022-12-08T10:38:49.074Z,26.13
2022-12-08T10:41:18.204Z,33.30
2022-12-08T10:43:53.005Z,25.23
2022-12-08T10:46:28.422Z,30.07
2022-12-08T10:49:16.868Z,32.40
2022-12-08T10:51:43.866Z,28.87
2022-12-08T10:54:34.208Z,17.77
2022-12-08T10:57:03.537Z,22.40
2022-12-08T10:59:33.917Z,27.73
2022-12-08T11:02:01.204Z,23.10
2022-12-08T11:04:36.527Z,23.17
2022-12-08T11:07:06.439Z,21.87
2022-12-08T11:09:50.883Z,27.90
2022-12-08T11:12:20.498Z,26.23
2022-12-08T11:14:54.531Z,22.87
2022-12-08T11:17:27.186Z,25.33
2022-12-08T11:20:01.703Z,29.33
2022-12-08T11:22:38.770Z,34.63
2022-12-08T11:25:08.551Z,29.80
2022-12-08T11:27:38.537Z,26.17
2022-12-08T11:30:26.173Z,26.10
2022-12-08T11:33:23.980Z,25.33
2022-12-08T11:36:10.217Z,31.83
2022-12-08T11:38:41.997Z,28.50
2022-12-08T11:41:15.834Z,25.80
2022-12-08T11:44:01.665Z,25.47
2022-12-08T11:46:40.402Z,21.40
2022-12-08T11:49:13.379Z,34.83
2022-12-08T11:51:44.524Z,31.97
2022-12-08T11:54:11.742Z,29.50
2022-12-08T11:56:43.036Z,28.57
2022-12-08T11:59:28.940Z,29.20
2022-12-08T12:01:57.934Z,26.90
2022-12-08T12:04:31.022Z,45.23
2022-12-08T12:07:09.855Z,37.97
2022-12-08T12:09:40.641Z,37.53
2022-12-08T12:12:25.925Z,40.87
2022-12-08T12:15:07.720Z,31.10
2022-12-08T12:17:47.830Z,32.30
2022-12-08T12:20:28.596Z,29.67
2022-12-08T12:23:37.259Z,42.77
2022-12-08T12:26:09.009Z,41.50
2022-12-08T12:28:49.830Z,26.77
2022-12-08T12:31:21.880Z,21.50
2022-12-08T12:33:51.166Z,21.00
2022-12-08T12:36:18.305Z,23.97
2022-12-08T12:39:07.787Z,23.40
2022-12-08T12:41:51.986Z,30.13
2022-12-08T12:44:18.840Z,30.27
2022-12-08T12:46:48.848Z,26.87
2022-12-08T12:49:40.782Z,27.03
2022-12-08T12:52:16.976Z,26.60
2022-12-08T12:55:04.765Z,25.80
2022-12-08T12:57:49.841Z,26.97
2022-12-08T13:00:22.996Z,25.03
2022-12-08T13:02:51.822Z,32.43
2022-12-08T13:05:29.649Z,24.83
2022-12-08T13:07:59.403Z,35.87
2022-12-08T13:10:33.991Z,26.37
2022-12-08T13:13:03.866Z,26.60
2022-12-08T13:15:36.636Z,23.40
2022-12-08T13:18:04.781Z,29.60
2022-12-08T13:20:43.226Z,30.97
2022-12-08T13:23:27.803Z,26.13
2022-12-08T13:26:15.158Z,25.83
2022-12-08T13:29:07.122Z,29.20
2022-12-08T13:31:49.846Z,30.43
2022-12-08T13:34:20.263Z,30.57
2022-12-08T13:36:50.164Z,35.10
2022-12-08T13:39:25.682Z,40.47
2022-12-08T13:42:00.495Z,34.30
2022-12-08T13:45:43.534Z,48.30
2022-12-08T13:48:30.190Z,45.70
2022-12-08T13:57:32.918Z,36.83
2022-12-08T14:00:02.355Z,32.30
2022-12-08T14:02:47.746Z,26.97
2022-12-08T14:05:34.649Z,34.13
2022-12-08T14:08:42.984Z,28.07
2022-12-08T14:11:07.577Z,22.40
2022-12-08T14:13:34.744Z,29.27
2022-12-08T14:16:02.477Z,24.47
2022-12-08T14:18:31.916Z,32.37
2022-12-08T14:21:20.358Z,28.57
2022-12-08T14:23:48.170Z,28.80
2022-12-08T14:26:15.130Z,27.57
2022-12-08T14:28:45.171Z,31.67
2022-12-08T14:31:14.722Z,32.57
2022-12-08T14:33:42.953Z,31.20
2022-12-08T14:36:11.022Z,32.53
2022-12-08T14:38:38.263Z,29.63
2022-12-08T14:41:07.978Z,29.03
2022-12-08T14:43:35.044Z,28.73
2022-12-08T14:46:18.842Z,29.97
2022-12-08T14:48:45.920Z,25.03
2022-12-08T14:51:18.782Z,26.43
2022-12-08T14:53:56.621Z,25.23
2022-12-08T14:56:26.446Z,24.40
2022-12-08T14:59:03.200Z,27.57
2022-12-08T15:01:30.676Z,29.40
2022-12-08T15:04:07.133Z,30.57
2022-12-08T15:06:34.391Z,30.00
2022-12-08T15:09:29.933Z,27.30
2022-12-08T15:12:24.695Z,29.80
2022-12-08T15:15:14.477Z,30.67
2022-12-08T15:17:47.547Z,26.20
2022-12-08T15:20:51.825Z,28.60
2022-12-08T15:23:29.665Z,27.93
2022-12-08T15:25:57.432Z,30.77
2022-12-08T15:28:30.269Z,36.37
2022-12-08T15:30:58.598Z,38.97
2022-12-08T15:33:25.881Z,32.83
2022-12-08T15:35:53.071Z,36.03
2022-12-08T15:38:26.979Z,40.30
2022-12-08T15:40:54.819Z,33.13
2022-12-08T15:43:22.815Z,37.10
2022-12-08T15:45:59.884Z,41.23
2022-12-08T15:48:30.750Z,39.63
2022-12-08T15:50:58.420Z,31.90
2022-12-08T15:53:25.745Z,39.10
2022-12-08T15:56:25.628Z,35.33
2022-12-08T15:58:56.673Z,42.10
2022-12-08T16:01:24.299Z,41.80
2022-12-08T16:09:38.588Z,34.60
2022-12-08T16:12:25.353Z,36.17
2022-12-08T16:17:40.672Z,39.43
2022-12-08T16:20:18.073Z,39.47
2022-12-08T16:23:13.380Z,44.93
2022-12-08T16:26:00.045Z,38.30
2022-12-08T16:28:52.975Z,42.33
2022-12-08T16:31:15.086Z,47.97
2022-12-08T16:33:43.568Z,40.83
2022-12-08T16:36:11.357Z,46.03
2022-12-08T16:38:38.265Z,36.63
2022-12-08T16:41:23.835Z,37.83
2022-12-08T16:43:51.292Z,35.33
2022-12-08T16:46:25.994Z,30.17
2022-12-08T16:48:52.907Z,38.73
2022-12-08T16:51:26.657Z,36.57
2022-12-08T16:53:53.925Z,39.83
2022-12-08T16:56:22.286Z,35.37
2022-12-08T16:58:51.147Z,36.93
2022-12-08T17:07:59.358Z,34.90
2022-12-08T17:10:28.872Z,36.10
2022-12-08T17:12:56.618Z,38.17
2022-12-08T17:15:25.721Z,31.07
2022-12-08T17:17:55.896Z,34.77
2022-12-08T17:20:25.229Z,37.87
2022-12-08T17:22:57.806Z,36.07
2022-12-08T17:25:26.080Z,36.60
2022-12-08T17:27:53.028Z,33.47
2022-12-08T17:30:20.032Z,30.00
2022-12-08T17:32:50.011Z,39.60
2022-12-08T17:35:16.868Z,38.90
2022-12-08T17:37:43.997Z,40.00
2022-12-08T17:40:11.570Z,43.07
2022-12-08T17:42:39.672Z,41.17
2022-12-08T17:45:08.091Z,50.27
2022-12-08T17:47:35.708Z,48.40
2022-12-08T17:50:02.971Z,43.87
2022-12-08T17:52:30.799Z,44.00
2022-12-08T17:54:57.714Z,44.13
2022-12-08T17:57:24.676Z,42.20
2022-12-08T17:59:51.547Z,38.53
2022-12-08T18:02:18.469Z,31.00
2022-12-08T18:04:45.529Z,29.00
2022-12-08T18:07:12.437Z,30.10
2022-12-08T18:09:39.382Z,38.90
2022-12-08T18:12:06.508Z,40.57
2022-12-08T18:14:33.492Z,35.10
2022-12-08T18:17:00.599Z,38.23
2022-12-08T18:19:27.971Z,42.83
2022-12-08T18:21:54.899Z,39.80
2022-12-08T18:24:23.473Z,36.03
2022-12-08T18:26:56.255Z,41.23
2022-12-08T18:29:23.800Z,46.10
2022-12-08T18:31:51.036Z,39.87
2022-12-08T18:34:21.800Z,41.67
2022-12-08T18:36:49.126Z,32.07
2022-12-08T18:39:33.882Z,35.30
2022-12-08T18:42:22.744Z,28.63
2022-12-08T18:44:57.129Z,31.27
2022-12-08T18:47:24.304Z,29.27
2022-12-08T18:49:53.726Z,32.27
2022-12-08T18:52:28.266Z,30.23
2022-12-08T18:55:06.259Z,28.87
2022-12-08T18:57:34.303Z,40.27
2022-12-08T19:00:02.709Z,34.90
2022-12-08T19:02:31.079Z,28.33
2022-12-08T19:04:58.055Z,28.83
2022-12-08T19:07:24.910Z,34.00
2022-12-08T19:09:51.776Z,28.03
2022-12-08T19:12:18.682Z,33.40
2022-12-08T19:14:45.694Z,35.57
2022-12-08T19:17:12.705Z,30.37
2022-12-08T19:19:39.598Z,38.43
2022-12-08T19:22:06.494Z,41.73
2022-12-08T19:24:34.888Z,37.30
2022-12-08T19:27:01.937Z,34.40
2022-12-08T19:29:28.997Z,41.67
2022-12-08T19:31:55.904Z,34.07
2022-12-08T19:34:25.334Z,44.90
2022-12-08T19:36:52.290Z,35.57
2022-12-08T19:39:40.141Z,47.43
2022-12-08T19:42:34.762Z,39.17
2022-12-08T19:45:10.148Z,41.60
2022-12-08T19:47:37.139Z,40.77
2022-12-08T19:50:24.320Z,37.80
2022-12-08T19:52:54.568Z,38.63
2022-12-08T19:55:24.830Z,38.87
2022-12-08T19:57:52.707Z,43.93
2022-12-08T20:00:21.851Z,37.83
2022-12-08T20:02:48.910Z,42.03
2022-12-08T20:05:16.025Z,41.33
2022-12-08T20:07:43.008Z,37.13
2022-12-08T20:10:28.219Z,45.57
2022-12-08T20:13:16.134Z,50.27
2022-12-08T20:15:43.703Z,42.87
2022-12-08T20:18:12.388Z,46.33
2022-12-08T20:20:40.258Z,44.23
2022-12-08T20:23:07.456Z,38.93
2022-12-08T20:25:37.212Z,44.53
2022-12-08T20:28:04.477Z,42.17
2022-12-08T20:30:31.410Z,35.67
2022-12-08T20:32:58.374Z,35.63
2022-12-08T20:35:25.282Z,40.33
2022-12-08T20:37:52.221Z,35.80
2022-12-08T20:40:19.251Z,36.27
2022-12-08T20:42:46.497Z,37.13
2022-12-08T20:45:13.528Z,34.10
2022-12-08T20:47:40.408Z,35.13
2022-12-08T20:50:08.581Z,35.30
2022-12-08T20:52:37.936Z,38.87
2022-12-08T20:55:06.658Z,43.70
2022-12-08T20:57:34.057Z,35.90
2022-12-08T21:00:01.075Z,43.70
2022-12-08T21:02:28.193Z,40.30
2022-12-08T21:04:55.339Z,43.17
2022-12-08T21:07:22.280Z,40.57
2022-12-08T21:09:49.369Z,44.53
2022-12-08T21:12:16.448Z,42.43
2022-12-08T21:14:43.818Z,35.77
2022-12-08T21:17:11.106Z,37.47
2022-12-08T21:19:38.298Z,40.50
2022-12-08T21:22:05.331Z,35.40
2022-12-08T21:24:34.320Z,40.10
2022-12-08T21:27:01.854Z,36.47
2022-12-08T21:29:28.995Z,37.53
2022-12-08T21:32:00.204Z,41.90
2022-12-08T21:34:31.914Z,40.90
2022-12-08T21:36:59.118Z,43.53
2022-12-08T21:39:26.849Z,41.13
2022-12-08T21:42:12.782Z,43.37
2022-12-08T21:44:40.436Z,42.13
2022-12-08T21:47:08.036Z,45.97
2022-12-08T21:49:37.622Z,45.10
2022-12-08T21:52:04.637Z,56.93
2022-12-08T21:54:31.540Z,41.57
2022-12-08T21:56:58.661Z,49.77
2022-12-08T21:59:25.667Z,50.37
2022-12-08T22:01:52.723Z,50.23
2022-12-08T22:04:21.840Z,50.17
2022-12-08T22:06:49.068Z,53.07
2022-12-08T22:09:16.105Z,44.03
2022-12-08T22:11:43.923Z,46.77
2022-12-08T22:14:14.838Z,51.43
2022-12-08T22:16:43.824Z,47.30
2022-12-08T22:19:11.363Z,48.27
2022-12-08T22:21:38.469Z,50.30
2022-12-08T22:24:06.239Z,47.40
2022-12-08T22:26:33.657Z,50.13
2022-12-08T22:29:00.620Z,48.83
2022-12-08T22:31:28.115Z,47.07
2022-12-08T22:33:55.781Z,43.60
2022-12-08T22:36:25.068Z,49.93
2022-12-08T22:38:53.399Z,44.30
2022-12-08T22:41:21.756Z,40.40
2022-12-08T22:43:51.318Z,47.07
2022-12-08T22:46:26.855Z,39.33
2022-12-08T22:48:54.856Z,42.13
2022-12-08T22:51:22.067Z,51.00
2022-12-08T22:53:49.683Z,40.20
2022-12-08T22:56:17.660Z,41.70
2022-12-08T22:58:45.540Z,48.80
2022-12-08T23:01:23.118Z,49.30
2022-12-08T23:03:50.225Z,42.30
2022-12-08T23:06:17.388Z,46.00
2022-12-08T23:08:45.192Z,48.00
2022-12-08T23:11:12.892Z,45.70
2022-12-08T23:13:42.256Z,45.70
2022-12-08T23:16:10.982Z,42.20
2022-12-08T23:18:42.189Z,35.97
2022-12-08T23:21:15.722Z,40.60
2022-12-08T23:23:42.904Z,40.13
2022-12-08T23:26:28.150Z,36.17
2022-12-08T23:28:55.674Z,38.90
2022-12-08T23:31:23.115Z,37.03
2022-12-08T23:33:50.571Z,35.33
2022-12-08T23:36:19.934Z,36.53
2022-12-08T23:38:47.281Z,38.53
2022-12-08T23:41:16.033Z,41.13
2022-12-08T23:43:48.848Z,40.03
2022-12-08T23:46:17.740Z,47.00
2022-12-08T23:48:44.731Z,50.23
2022-12-08T23:51:12.635Z,40.77
2022-12-08T23:53:40.142Z,41.97
2022-12-08T23:56:10.116Z,36.03
2022-12-08T23:58:37.186Z,39.20
